sensor_id;sensor_type;location;lat;lon;timestamp;P1;durP1;ratioP1;P2;durP2;ratioP2
12120;SDS011;6124;59.460;17.908;2023-11-21T00:01:33;9.17;;;5.70;;
12120;SDS011;6124;59.460;17.908;2023-11-21T00:04:00;9.10;;;5.53;;
12120;SDS011;6124;59.460;17.908;2023-11-21T00:06:27;8.43;;;5.53;;
12120;SDS011;6124;59.460;17.908;2023-11-21T00:08:55;6.73;;;5.10;;
12120;SDS011;6124;59.460;17.908;2023-11-21T00:11:23;6.40;;;4.60;;
12120;SDS011;6124;59.460;17.908;2023-11-21T00:13:50;9.30;;;4.80;;
12120;SDS011;6124;59.460;17.908;2023-11-21T00:16:18;7.83;;;5.07;;
12120;SDS011;6124;59.460;17.908;2023-11-21T00:18:46;8.93;;;5.13;;
12120;SDS011;6124;59.460;17.908;2023-11-21T00:21:14;10.23;;;5.63;;
12120;SDS011;6124;59.460;17.908;2023-11-21T00:23:41;8.97;;;5.20;;
12120;SDS011;6124;59.460;17.908;2023-11-21T00:26:08;9.57;;;5.00;;
12120;SDS011;6124;59.460;17.908;2023-11-21T00:28:36;8.67;;;5.07;;
12120;SDS011;6124;59.460;17.908;2023-11-21T00:31:03;7.60;;;4.67;;
12120;SDS011;6124;59.460;17.908;2023-11-21T00:33:30;6.90;;;4.87;;
12120;SDS011;6124;59.460;17.908;2023-11-21T00:35:59;7.00;;;5.03;;
12120;SDS011;6124;59.460;17.908;2023-11-21T00:38:26;7.47;;;4.83;;
12120;SDS011;6124;59.460;17.908;2023-11-21T00:40:54;7.10;;;4.67;;
12120;SDS011;6124;59.460;17.908;2023-11-21T00:43:22;8.97;;;4.97;;
12120;SDS011;6124;59.460;17.908;2023-11-21T00:45:49;7.97;;;4.90;;
12120;SDS011;6124;59.460;17.908;2023-11-21T00:48:16;6.60;;;4.40;;
12120;SDS011;6124;59.460;17.908;2023-11-21T00:50:44;6.10;;;3.90;;
12120;SDS011;6124;59.460;17.908;2023-11-21T00:53:12;6.03;;;4.20;;
12120;SDS011;6124;59.460;17.908;2023-11-21T00:55:40;5.83;;;4.00;;
12120;SDS011;6124;59.460;17.908;2023-11-21T00:58:07;5.10;;;3.57;;
12120;SDS011;6124;59.460;17.908;2023-11-21T01:00:35;6.27;;;4.00;;
12120;SDS011;6124;59.460;17.908;2023-11-21T01:03:04;5.20;;;3.33;;
12120;SDS011;6124;59.460;17.908;2023-11-21T01:05:33;5.90;;;3.60;;
12120;SDS011;6124;59.460;17.908;2023-11-21T01:08:00;4.70;;;3.37;;
12120;SDS011;6124;59.460;17.908;2023-11-21T01:10:29;5.10;;;3.70;;
12120;SDS011;6124;59.460;17.908;2023-11-21T01:12:56;5.30;;;3.40;;
12120;SDS011;6124;59.460;17.908;2023-11-21T01:15:24;4.87;;;3.53;;
12120;SDS011;6124;59.460;17.908;2023-11-21T01:17:51;4.60;;;3.40;;
12120;SDS011;6124;59.460;17.908;2023-11-21T01:20:18;5.50;;;3.83;;
12120;SDS011;6124;59.460;17.908;2023-11-21T01:22:45;6.63;;;3.60;;
12120;SDS011;6124;59.460;17.908;2023-11-21T01:25:14;4.67;;;3.67;;
12120;SDS011;6124;59.460;17.908;2023-11-21T01:27:43;4.73;;;3.30;;
12120;SDS011;6124;59.460;17.908;2023-11-21T01:30:10;5.60;;;3.70;;
12120;SDS011;6124;59.460;17.908;2023-11-21T01:32:37;5.73;;;3.50;;
12120;SDS011;6124;59.460;17.908;2023-11-21T01:35:05;4.90;;;3.67;;
12120;SDS011;6124;59.460;17.908;2023-11-21T01:37:34;5.30;;;3.53;;
12120;SDS011;6124;59.460;17.908;2023-11-21T01:40:02;6.30;;;3.70;;
12120;SDS011;6124;59.460;17.908;2023-11-21T01:42:36;5.03;;;3.60;;
12120;SDS011;6124;59.460;17.908;2023-11-21T01:45:05;5.90;;;3.90;;
12120;SDS011;6124;59.460;17.908;2023-11-21T01:47:33;6.90;;;3.77;;
12120;SDS011;6124;59.460;17.908;2023-11-21T01:50:01;5.43;;;3.50;;
12120;SDS011;6124;59.460;17.908;2023-11-21T01:52:29;5.33;;;3.73;;
12120;SDS011;6124;59.460;17.908;2023-11-21T01:54:57;5.33;;;3.30;;
12120;SDS011;6124;59.460;17.908;2023-11-21T01:57:25;4.87;;;3.60;;
12120;SDS011;6124;59.460;17.908;2023-11-21T01:59:52;4.77;;;3.67;;
12120;SDS011;6124;59.460;17.908;2023-11-21T02:02:22;5.03;;;3.77;;
12120;SDS011;6124;59.460;17.908;2023-11-21T02:04:49;5.27;;;4.00;;
12120;SDS011;6124;59.460;17.908;2023-11-21T02:07:16;5.20;;;3.57;;
12120;SDS011;6124;59.460;17.908;2023-11-21T02:09:44;5.67;;;3.47;;
12120;SDS011;6124;59.460;17.908;2023-11-21T02:12:13;5.07;;;3.57;;
12120;SDS011;6124;59.460;17.908;2023-11-21T02:14:41;5.30;;;3.50;;
12120;SDS011;6124;59.460;17.908;2023-11-21T02:17:08;4.73;;;3.60;;
12120;SDS011;6124;59.460;17.908;2023-11-21T02:19:37;4.50;;;3.37;;
12120;SDS011;6124;59.460;17.908;2023-11-21T02:22:04;5.47;;;3.73;;
12120;SDS011;6124;59.460;17.908;2023-11-21T02:24:33;5.43;;;3.80;;
12120;SDS011;6124;59.460;17.908;2023-11-21T02:27:00;5.00;;;3.60;;
12120;SDS011;6124;59.460;17.908;2023-11-21T02:29:27;5.37;;;3.80;;
12120;SDS011;6124;59.460;17.908;2023-11-21T02:31:55;5.00;;;3.53;;
12120;SDS011;6124;59.460;17.908;2023-11-21T02:34:22;5.07;;;3.63;;
12120;SDS011;6124;59.460;17.908;2023-11-21T02:36:50;5.80;;;3.60;;
12120;SDS011;6124;59.460;17.908;2023-11-21T02:39:19;5.27;;;4.00;;
12120;SDS011;6124;59.460;17.908;2023-11-21T02:41:48;5.17;;;4.03;;
12120;SDS011;6124;59.460;17.908;2023-11-21T02:44:16;5.17;;;3.73;;
12120;SDS011;6124;59.460;17.908;2023-11-21T02:46:43;4.73;;;3.53;;
12120;SDS011;6124;59.460;17.908;2023-11-21T02:49:12;6.30;;;3.63;;
12120;SDS011;6124;59.460;17.908;2023-11-21T02:51:39;4.90;;;3.60;;
12120;SDS011;6124;59.460;17.908;2023-11-21T02:54:06;6.43;;;4.07;;
12120;SDS011;6124;59.460;17.908;2023-11-21T02:56:34;6.70;;;4.00;;
12120;SDS011;6124;59.460;17.908;2023-11-21T02:59:02;4.93;;;4.00;;
12120;SDS011;6124;59.460;17.908;2023-11-21T03:01:30;5.57;;;3.80;;
12120;SDS011;6124;59.460;17.908;2023-11-21T03:03:57;6.17;;;3.63;;
12120;SDS011;6124;59.460;17.908;2023-11-21T03:06:25;5.27;;;3.90;;
12120;SDS011;6124;59.460;17.908;2023-11-21T03:08:52;5.13;;;3.97;;
12120;SDS011;6124;59.460;17.908;2023-11-21T03:11:19;6.20;;;4.10;;
12120;SDS011;6124;59.460;17.908;2023-11-21T03:13:46;6.00;;;4.00;;
12120;SDS011;6124;59.460;17.908;2023-11-21T03:16:15;7.90;;;4.10;;
12120;SDS011;6124;59.460;17.908;2023-11-21T03:18:44;5.60;;;3.77;;
12120;SDS011;6124;59.460;17.908;2023-11-21T03:21:11;4.77;;;3.70;;
12120;SDS011;6124;59.460;17.908;2023-11-21T03:23:39;5.27;;;3.70;;
12120;SDS011;6124;59.460;17.908;2023-11-21T03:26:06;4.83;;;3.17;;
12120;SDS011;6124;59.460;17.908;2023-11-21T03:28:34;5.20;;;3.43;;
12120;SDS011;6124;59.460;17.908;2023-11-21T03:31:01;4.83;;;3.57;;
12120;SDS011;6124;59.460;17.908;2023-11-21T03:33:30;5.20;;;3.23;;
12120;SDS011;6124;59.460;17.908;2023-11-21T03:35:57;4.97;;;3.57;;
12120;SDS011;6124;59.460;17.908;2023-11-21T03:38:25;5.57;;;3.30;;
12120;SDS011;6124;59.460;17.908;2023-11-21T03:40:52;5.50;;;3.10;;
12120;SDS011;6124;59.460;17.908;2023-11-21T03:43:20;4.77;;;3.47;;
12120;SDS011;6124;59.460;17.908;2023-11-21T03:45:47;4.60;;;3.47;;
12120;SDS011;6124;59.460;17.908;2023-11-21T03:48:14;3.93;;;2.90;;
12120;SDS011;6124;59.460;17.908;2023-11-21T03:50:43;3.77;;;2.83;;
12120;SDS011;6124;59.460;17.908;2023-11-21T03:53:12;6.87;;;3.00;;
12120;SDS011;6124;59.460;17.908;2023-11-21T03:55:39;3.40;;;2.50;;
12120;SDS011;6124;59.460;17.908;2023-11-21T03:58:07;3.50;;;2.33;;
12120;SDS011;6124;59.460;17.908;2023-11-21T04:00:34;3.00;;;2.20;;
12120;SDS011;6124;59.460;17.908;2023-11-21T04:03:01;2.50;;;2.30;;
12120;SDS011;6124;59.460;17.908;2023-11-21T04:05:30;2.93;;;2.40;;
12120;SDS011;6124;59.460;17.908;2023-11-21T04:07:58;3.17;;;2.50;;
12120;SDS011;6124;59.460;17.908;2023-11-21T04:10:26;4.33;;;3.10;;
12120;SDS011;6124;59.460;17.908;2023-11-21T04:12:54;2.97;;;2.47;;
12120;SDS011;6124;59.460;17.908;2023-11-21T04:15:21;2.73;;;2.20;;
12120;SDS011;6124;59.460;17.908;2023-11-21T04:17:48;4.50;;;2.40;;
12120;SDS011;6124;59.460;17.908;2023-11-21T04:20:16;2.90;;;2.63;;
12120;SDS011;6124;59.460;17.908;2023-11-21T04:22:43;2.90;;;2.60;;
12120;SDS011;6124;59.460;17.908;2023-11-21T04:25:12;3.07;;;2.60;;
12120;SDS011;6124;59.460;17.908;2023-11-21T04:27:40;3.20;;;2.60;;
12120;SDS011;6124;59.460;17.908;2023-11-21T04:30:09;3.40;;;2.60;;
12120;SDS011;6124;59.460;17.908;2023-11-21T04:32:36;3.37;;;2.60;;
12120;SDS011;6124;59.460;17.908;2023-11-21T04:35:04;3.03;;;2.73;;
12120;SDS011;6124;59.460;17.908;2023-11-21T04:37:31;2.87;;;2.57;;
12120;SDS011;6124;59.460;17.908;2023-11-21T04:39:59;3.27;;;2.37;;
12120;SDS011;6124;59.460;17.908;2023-11-21T04:42:28;3.20;;;2.43;;
12120;SDS011;6124;59.460;17.908;2023-11-21T04:44:55;3.20;;;2.73;;
12120;SDS011;6124;59.460;17.908;2023-11-21T04:47:22;2.80;;;2.60;;
12120;SDS011;6124;59.460;17.908;2023-11-21T04:49:50;4.33;;;2.50;;
12120;SDS011;6124;59.460;17.908;2023-11-21T04:52:18;4.10;;;2.60;;
12120;SDS011;6124;59.460;17.908;2023-11-21T04:54:46;3.50;;;2.60;;
12120;SDS011;6124;59.460;17.908;2023-11-21T04:57:13;3.27;;;2.60;;
12120;SDS011;6124;59.460;17.908;2023-11-21T04:59:44;3.77;;;2.50;;
12120;SDS011;6124;59.460;17.908;2023-11-21T05:02:11;2.83;;;2.30;;
12120;SDS011;6124;59.460;17.908;2023-11-21T05:04:39;3.40;;;2.53;;
12120;SDS011;6124;59.460;17.908;2023-11-21T05:07:07;2.90;;;2.60;;
12120;SDS011;6124;59.460;17.908;2023-11-21T05:09:35;4.13;;;2.47;;
12120;SDS011;6124;59.460;17.908;2023-11-21T05:12:03;5.27;;;2.83;;
12120;SDS011;6124;59.460;17.908;2023-11-21T05:14:30;3.37;;;2.90;;
12120;SDS011;6124;59.460;17.908;2023-11-21T05:16:59;2.90;;;2.30;;
12120;SDS011;6124;59.460;17.908;2023-11-21T05:19:27;3.50;;;2.90;;
12120;SDS011;6124;59.460;17.908;2023-11-21T05:21:55;2.97;;;2.50;;
12120;SDS011;6124;59.460;17.908;2023-11-21T05:24:22;3.60;;;2.50;;
12120;SDS011;6124;59.460;17.908;2023-11-21T05:26:49;3.23;;;2.43;;
12120;SDS011;6124;59.460;17.908;2023-11-21T05:29:17;3.87;;;3.00;;
12120;SDS011;6124;59.460;17.908;2023-11-21T05:31:45;3.63;;;2.83;;
12120;SDS011;6124;59.460;17.908;2023-11-21T05:34:14;4.23;;;2.70;;
12120;SDS011;6124;59.460;17.908;2023-11-21T05:36:42;5.23;;;3.17;;
12120;SDS011;6124;59.460;17.908;2023-11-21T05:39:10;4.33;;;3.03;;
12120;SDS011;6124;59.460;17.908;2023-11-21T05:41:38;4.00;;;2.93;;
12120;SDS011;6124;59.460;17.908;2023-11-21T05:44:05;4.17;;;3.07;;
12120;SDS011;6124;59.460;17.908;2023-11-21T05:46:32;4.23;;;3.37;;
12120;SDS011;6124;59.460;17.908;2023-11-21T05:49:00;4.20;;;3.20;;
12120;SDS011;6124;59.460;17.908;2023-11-21T05:51:29;4.43;;;2.90;;
12120;SDS011;6124;59.460;17.908;2023-11-21T05:53:56;3.10;;;2.67;;
12120;SDS011;6124;59.460;17.908;2023-11-21T05:56:23;4.43;;;3.00;;
12120;SDS011;6124;59.460;17.908;2023-11-21T05:58:51;4.27;;;2.93;;
12120;SDS011;6124;59.460;17.908;2023-11-21T06:01:18;5.23;;;3.47;;
12120;SDS011;6124;59.460;17.908;2023-11-21T06:03:46;5.53;;;3.33;;
12120;SDS011;6124;59.460;17.908;2023-11-21T06:06:13;5.97;;;3.63;;
12120;SDS011;6124;59.460;17.908;2023-11-21T06:08:43;3.80;;;3.03;;
12120;SDS011;6124;59.460;17.908;2023-11-21T06:11:10;6.00;;;3.50;;
12120;SDS011;6124;59.460;17.908;2023-11-21T06:13:37;6.80;;;3.60;;
12120;SDS011;6124;59.460;17.908;2023-11-21T06:16:05;5.33;;;3.47;;
12120;SDS011;6124;59.460;17.908;2023-11-21T06:18:32;5.70;;;3.73;;
12120;SDS011;6124;59.460;17.908;2023-11-21T06:21:00;6.27;;;3.60;;
12120;SDS011;6124;59.460;17.908;2023-11-21T06:23:27;5.77;;;3.50;;
12120;SDS011;6124;59.460;17.908;2023-11-21T06:25:56;4.53;;;3.20;;
12120;SDS011;6124;59.460;17.908;2023-11-21T06:28:23;4.80;;;3.23;;
12120;SDS011;6124;59.460;17.908;2023-11-21T06:30:51;4.93;;;3.83;;
12120;SDS011;6124;59.460;17.908;2023-11-21T06:33:18;4.67;;;3.30;;
12120;SDS011;6124;59.460;17.908;2023-11-21T06:35:46;3.60;;;3.07;;
12120;SDS011;6124;59.460;17.908;2023-11-21T06:38:14;4.60;;;3.20;;
12120;SDS011;6124;59.460;17.908;2023-11-21T06:40:42;3.43;;;2.90;;
12120;SDS011;6124;59.460;17.908;2023-11-21T06:43:12;4.00;;;3.27;;
12120;SDS011;6124;59.460;17.908;2023-11-21T06:45:39;4.43;;;3.40;;
12120;SDS011;6124;59.460;17.908;2023-11-21T06:48:07;4.47;;;3.30;;
12120;SDS011;6124;59.460;17.908;2023-11-21T06:50:34;5.30;;;3.77;;
12120;SDS011;6124;59.460;17.908;2023-11-21T06:53:01;5.03;;;3.67;;
12120;SDS011;6124;59.460;17.908;2023-11-21T06:55:32;5.73;;;3.60;;
12120;SDS011;6124;59.460;17.908;2023-11-21T06:57:59;4.20;;;3.50;;
12120;SDS011;6124;59.460;17.908;2023-11-21T07:00:28;6.87;;;3.90;;
12120;SDS011;6124;59.460;17.908;2023-11-21T07:02:55;4.73;;;3.70;;
12120;SDS011;6124;59.460;17.908;2023-11-21T07:05:22;4.70;;;3.43;;
12120;SDS011;6124;59.460;17.908;2023-11-21T07:07:50;5.00;;;3.50;;
12120;SDS011;6124;59.460;17.908;2023-11-21T07:10:19;5.37;;;3.70;;
12120;SDS011;6124;59.460;17.908;2023-11-21T07:12:46;4.97;;;3.73;;
12120;SDS011;6124;59.460;17.908;2023-11-21T07:15:13;5.50;;;3.63;;
12120;SDS011;6124;59.460;17.908;2023-11-21T07:17:42;6.33;;;4.03;;
12120;SDS011;6124;59.460;17.908;2023-11-21T07:20:10;4.60;;;3.50;;
12120;SDS011;6124;59.460;17.908;2023-11-21T07:22:39;5.37;;;4.00;;
12120;SDS011;6124;59.460;17.908;2023-11-21T07:25:06;6.00;;;3.90;;
12120;SDS011;6124;59.460;17.908;2023-11-21T07:27:34;5.63;;;3.97;;
12120;SDS011;6124;59.460;17.908;2023-11-21T07:30:02;4.97;;;4.30;;
12120;SDS011;6124;59.460;17.908;2023-11-21T07:32:31;5.30;;;3.97;;
12120;SDS011;6124;59.460;17.908;2023-11-21T07:35:00;6.20;;;4.10;;
12120;SDS011;6124;59.460;17.908;2023-11-21T07:37:27;5.20;;;4.07;;
12120;SDS011;6124;59.460;17.908;2023-11-21T07:39:55;5.57;;;4.17;;
12120;SDS011;6124;59.460;17.908;2023-11-21T07:42:22;5.63;;;3.77;;
12120;SDS011;6124;59.460;17.908;2023-11-21T07:44:52;6.83;;;4.07;;
12120;SDS011;6124;59.460;17.908;2023-11-21T07:47:19;6.20;;;3.77;;
12120;SDS011;6124;59.460;17.908;2023-11-21T07:49:47;5.90;;;4.23;;
12120;SDS011;6124;59.460;17.908;2023-11-21T07:52:15;5.97;;;4.00;;
12120;SDS011;6124;59.460;17.908;2023-11-21T07:54:43;6.43;;;4.47;;
12120;SDS011;6124;59.460;17.908;2023-11-21T07:57:10;5.80;;;4.13;;
12120;SDS011;6124;59.460;17.908;2023-11-21T07:59:38;6.97;;;5.00;;
12120;SDS011;6124;59.460;17.908;2023-11-21T08:02:06;8.00;;;4.50;;
12120;SDS011;6124;59.460;17.908;2023-11-21T08:04:34;6.27;;;5.07;;
12120;SDS011;6124;59.460;17.908;2023-11-21T08:07:01;6.87;;;4.70;;
12120;SDS011;6124;59.460;17.908;2023-11-21T08:09:31;7.60;;;4.73;;
12120;SDS011;6124;59.460;17.908;2023-11-21T08:11:59;5.93;;;4.50;;
12120;SDS011;6124;59.460;17.908;2023-11-21T08:14:27;7.17;;;4.60;;
12120;SDS011;6124;59.460;17.908;2023-11-21T08:16:55;6.67;;;4.53;;
12120;SDS011;6124;59.460;17.908;2023-11-21T08:19:22;5.77;;;4.67;;
12120;SDS011;6124;59.460;17.908;2023-11-21T08:21:51;6.33;;;4.77;;
12120;SDS011;6124;59.460;17.908;2023-11-21T08:24:19;6.53;;;4.90;;
12120;SDS011;6124;59.460;17.908;2023-11-21T08:26:48;7.23;;;5.30;;
12120;SDS011;6124;59.460;17.908;2023-11-21T08:29:17;6.20;;;5.00;;
12120;SDS011;6124;59.460;17.908;2023-11-21T08:31:44;6.67;;;5.20;;
12120;SDS011;6124;59.460;17.908;2023-11-21T08:34:12;8.83;;;5.10;;
12120;SDS011;6124;59.460;17.908;2023-11-21T08:36:41;7.53;;;4.43;;
12120;SDS011;6124;59.460;17.908;2023-11-21T08:39:09;6.70;;;4.40;;
12120;SDS011;6124;59.460;17.908;2023-11-21T08:41:36;4.50;;;3.93;;
12120;SDS011;6124;59.460;17.908;2023-11-21T08:44:05;5.80;;;3.50;;
12120;SDS011;6124;59.460;17.908;2023-11-21T08:46:33;6.50;;;3.73;;
12120;SDS011;6124;59.460;17.908;2023-11-21T08:49:03;5.47;;;3.70;;
12120;SDS011;6124;59.460;17.908;2023-11-21T08:51:31;5.20;;;3.63;;
12120;SDS011;6124;59.460;17.908;2023-11-21T08:53:58;6.57;;;3.87;;
12120;SDS011;6124;59.460;17.908;2023-11-21T08:56:29;7.30;;;3.97;;
12120;SDS011;6124;59.460;17.908;2023-11-21T08:58:56;5.03;;;3.60;;
12120;SDS011;6124;59.460;17.908;2023-11-21T09:01:27;5.33;;;3.60;;
12120;SDS011;6124;59.460;17.908;2023-11-21T09:03:56;5.00;;;3.47;;
12120;SDS011;6124;59.460;17.908;2023-11-21T09:06:23;5.07;;;3.27;;
12120;SDS011;6124;59.460;17.908;2023-11-21T09:08:51;5.10;;;3.23;;
12120;SDS011;6124;59.460;17.908;2023-11-21T09:11:18;4.40;;;3.53;;
12120;SDS011;6124;59.460;17.908;2023-11-21T09:13:45;6.63;;;3.97;;
12120;SDS011;6124;59.460;17.908;2023-11-21T09:16:13;5.33;;;3.43;;
12120;SDS011;6124;59.460;17.908;2023-11-21T09:18:43;4.73;;;3.27;;
12120;SDS011;6124;59.460;17.908;2023-11-21T09:21:10;3.30;;;2.83;;
12120;SDS011;6124;59.460;17.908;2023-11-21T09:23:37;6.10;;;3.33;;
12120;SDS011;6124;59.460;17.908;2023-11-21T09:26:05;5.60;;;3.27;;
12120;SDS011;6124;59.460;17.908;2023-11-21T09:28:32;3.80;;;2.93;;
12120;SDS011;6124;59.460;17.908;2023-11-21T09:31:03;4.17;;;3.23;;
12120;SDS011;6124;59.460;17.908;2023-11-21T09:33:34;5.73;;;3.30;;
12120;SDS011;6124;59.460;17.908;2023-11-21T09:36:02;4.93;;;3.40;;
12120;SDS011;6124;59.460;17.908;2023-11-21T09:38:30;5.40;;;3.47;;
12120;SDS011;6124;59.460;17.908;2023-11-21T09:40:57;3.10;;;2.63;;
12120;SDS011;6124;59.460;17.908;2023-11-21T09:43:25;3.80;;;2.97;;
12120;SDS011;6124;59.460;17.908;2023-11-21T09:45:56;5.13;;;3.30;;
12120;SDS011;6124;59.460;17.908;2023-11-21T09:48:26;5.20;;;3.50;;
12120;SDS011;6124;59.460;17.908;2023-11-21T09:50:53;3.93;;;3.20;;
12120;SDS011;6124;59.460;17.908;2023-11-21T09:53:22;5.10;;;3.43;;
12120;SDS011;6124;59.460;17.908;2023-11-21T09:55:51;6.10;;;3.10;;
12120;SDS011;6124;59.460;17.908;2023-11-21T09:58:18;4.00;;;3.23;;
12120;SDS011;6124;59.460;17.908;2023-11-21T10:00:48;9.00;;;3.77;;
12120;SDS011;6124;59.460;17.908;2023-11-21T10:03:16;6.80;;;3.90;;
12120;SDS011;6124;59.460;17.908;2023-11-21T10:05:43;6.47;;;3.70;;
12120;SDS011;6124;59.460;17.908;2023-11-21T10:08:12;5.73;;;3.77;;
12120;SDS011;6124;59.460;17.908;2023-11-21T10:10:42;4.87;;;3.47;;
12120;SDS011;6124;59.460;17.908;2023-11-21T10:13:11;5.57;;;3.57;;
12120;SDS011;6124;59.460;17.908;2023-11-21T10:15:41;4.73;;;3.90;;
12120;SDS011;6124;59.460;17.908;2023-11-21T10:18:13;5.73;;;3.50;;
12120;SDS011;6124;59.460;17.908;2023-11-21T10:20:41;6.07;;;3.90;;
12120;SDS011;6124;59.460;17.908;2023-11-21T10:23:11;4.57;;;3.80;;
12120;SDS011;6124;59.460;17.908;2023-11-21T10:25:41;4.73;;;3.53;;
12120;SDS011;6124;59.460;17.908;2023-11-21T10:28:08;6.23;;;3.90;;
12120;SDS011;6124;59.460;17.908;2023-11-21T10:30:37;6.50;;;4.37;;
12120;SDS011;6124;59.460;17.908;2023-11-21T10:33:05;5.93;;;3.97;;
12120;SDS011;6124;59.460;17.908;2023-11-21T10:35:39;5.47;;;3.90;;
12120;SDS011;6124;59.460;17.908;2023-11-21T10:38:11;5.73;;;3.40;;
12120;SDS011;6124;59.460;17.908;2023-11-21T10:40:40;4.37;;;3.70;;
12120;SDS011;6124;59.460;17.908;2023-11-21T10:43:09;4.60;;;3.70;;
12120;SDS011;6124;59.460;17.908;2023-11-21T10:45:38;5.70;;;3.40;;
12120;SDS011;6124;59.460;17.908;2023-11-21T10:48:06;5.13;;;3.67;;
12120;SDS011;6124;59.460;17.908;2023-11-21T10:50:34;4.53;;;3.40;;
12120;SDS011;6124;59.460;17.908;2023-11-21T10:53:01;7.67;;;3.53;;
12120;SDS011;6124;59.460;17.908;2023-11-21T10:55:30;6.27;;;3.53;;
12120;SDS011;6124;59.460;17.908;2023-11-21T10:57:59;4.57;;;3.23;;
12120;SDS011;6124;59.460;17.908;2023-11-21T11:00:27;4.83;;;3.73;;
12120;SDS011;6124;59.460;17.908;2023-11-21T11:02:55;4.43;;;3.40;;
12120;SDS011;6124;59.460;17.908;2023-11-21T11:05:24;6.23;;;4.03;;
12120;SDS011;6124;59.460;17.908;2023-11-21T11:07:57;5.30;;;4.00;;
12120;SDS011;6124;59.460;17.908;2023-11-21T11:10:26;7.00;;;4.07;;
12120;SDS011;6124;59.460;17.908;2023-11-21T11:12:54;4.73;;;3.57;;
12120;SDS011;6124;59.460;17.908;2023-11-21T11:15:24;5.73;;;4.17;;
12120;SDS011;6124;59.460;17.908;2023-11-21T11:17:52;5.90;;;4.03;;
12120;SDS011;6124;59.460;17.908;2023-11-21T11:20:22;8.23;;;3.90;;
12120;SDS011;6124;59.460;17.908;2023-11-21T11:22:52;5.53;;;3.80;;
12120;SDS011;6124;59.460;17.908;2023-11-21T11:28:07;4.00;;;3.60;;
12120;SDS011;6124;59.460;17.908;2023-11-21T11:30:39;5.33;;;4.03;;
12120;SDS011;6124;59.460;17.908;2023-11-21T11:33:13;6.77;;;4.03;;
12120;SDS011;6124;59.460;17.908;2023-11-21T11:35:43;5.40;;;3.80;;
12120;SDS011;6124;59.460;17.908;2023-11-21T11:38:14;6.73;;;4.10;;
12120;SDS011;6124;59.460;17.908;2023-11-21T11:40:41;5.77;;;4.10;;
12120;SDS011;6124;59.460;17.908;2023-11-21T11:43:11;5.00;;;3.70;;
12120;SDS011;6124;59.460;17.908;2023-11-21T11:45:40;4.50;;;4.00;;
12120;SDS011;6124;59.460;17.908;2023-11-21T11:48:07;4.77;;;3.87;;
12120;SDS011;6124;59.460;17.908;2023-11-21T11:50:35;7.60;;;3.80;;
12120;SDS011;6124;59.460;17.908;2023-11-21T11:53:11;6.00;;;3.67;;
12120;SDS011;6124;59.460;17.908;2023-11-21T11:55:39;5.87;;;3.83;;
12120;SDS011;6124;59.460;17.908;2023-11-21T11:58:06;5.73;;;3.37;;
12120;SDS011;6124;59.460;17.908;2023-11-21T12:00:34;4.00;;;3.33;;
12120;SDS011;6124;59.460;17.908;2023-11-21T12:03:07;3.33;;;2.70;;
12120;SDS011;6124;59.460;17.908;2023-11-21T12:05:35;3.50;;;2.57;;
12120;SDS011;6124;59.460;17.908;2023-11-21T12:08:04;5.33;;;2.77;;
12120;SDS011;6124;59.460;17.908;2023-11-21T12:10:32;3.97;;;2.77;;
12120;SDS011;6124;59.460;17.908;2023-11-21T12:13:00;5.03;;;3.13;;
12120;SDS011;6124;59.460;17.908;2023-11-21T12:15:28;4.50;;;3.03;;
12120;SDS011;6124;59.460;17.908;2023-11-21T12:17:56;3.67;;;2.57;;
12120;SDS011;6124;59.460;17.908;2023-11-21T12:20:26;4.47;;;2.60;;
12120;SDS011;6124;59.460;17.908;2023-11-21T12:22:54;3.33;;;2.13;;
12120;SDS011;6124;59.460;17.908;2023-11-21T12:25:22;2.77;;;2.23;;
12120;SDS011;6124;59.460;17.908;2023-11-21T12:27:51;5.60;;;1.97;;
12120;SDS011;6124;59.460;17.908;2023-11-21T12:30:20;2.87;;;2.40;;
12120;SDS011;6124;59.460;17.908;2023-11-21T12:32:48;3.27;;;2.07;;
12120;SDS011;6124;59.460;17.908;2023-11-21T12:35:16;4.03;;;2.07;;
12120;SDS011;6124;59.460;17.908;2023-11-21T12:37:46;3.80;;;2.50;;
12120;SDS011;6124;59.460;17.908;2023-11-21T12:40:13;4.83;;;2.37;;
12120;SDS011;6124;59.460;17.908;2023-11-21T12:42:42;3.97;;;2.20;;
12120;SDS011;6124;59.460;17.908;2023-11-21T12:45:15;3.50;;;2.40;;
12120;SDS011;6124;59.460;17.908;2023-11-21T12:47:45;2.73;;;2.27;;
12120;SDS011;6124;59.460;17.908;2023-11-21T12:50:13;1.90;;;1.60;;
12120;SDS011;6124;59.460;17.908;2023-11-21T12:52:44;2.93;;;2.00;;
12120;SDS011;6124;59.460;17.908;2023-11-21T12:55:15;3.23;;;1.83;;
12120;SDS011;6124;59.460;17.908;2023-11-21T12:57:43;2.40;;;1.83;;
12120;SDS011;6124;59.460;17.908;2023-11-21T13:00:11;2.97;;;1.87;;
12120;SDS011;6124;59.460;17.908;2023-11-21T13:02:50;2.00;;;1.50;;
12120;SDS011;6124;59.460;17.908;2023-11-21T13:05:23;2.73;;;1.60;;
12120;SDS011;6124;59.460;17.908;2023-11-21T13:07:50;3.17;;;1.90;;
12120;SDS011;6124;59.460;17.908;2023-11-21T13:10:21;2.73;;;2.03;;
12120;SDS011;6124;59.460;17.908;2023-11-21T13:12:51;3.63;;;1.77;;
12120;SDS011;6124;59.460;17.908;2023-11-21T13:15:20;2.13;;;1.77;;
12120;SDS011;6124;59.460;17.908;2023-11-21T13:17:47;2.90;;;2.20;;
12120;SDS011;6124;59.460;17.908;2023-11-21T13:20:16;2.73;;;2.03;;
12120;SDS011;6124;59.460;17.908;2023-11-21T13:22:48;2.70;;;2.00;;
12120;SDS011;6124;59.460;17.908;2023-11-21T13:25:19;3.40;;;2.20;;
12120;SDS011;6124;59.460;17.908;2023-11-21T13:27:48;3.07;;;2.10;;
12120;SDS011;6124;59.460;17.908;2023-11-21T13:30:16;2.43;;;1.97;;
12120;SDS011;6124;59.460;17.908;2023-11-21T13:32:48;2.77;;;1.90;;
12120;SDS011;6124;59.460;17.908;2023-11-21T13:35:16;2.30;;;2.03;;
12120;SDS011;6124;59.460;17.908;2023-11-21T13:37:49;2.43;;;2.13;;
12120;SDS011;6124;59.460;17.908;2023-11-21T13:40:21;3.83;;;1.80;;
12120;SDS011;6124;59.460;17.908;2023-11-21T13:42:52;3.67;;;1.90;;
12120;SDS011;6124;59.460;17.908;2023-11-21T13:45:20;2.53;;;2.00;;
12120;SDS011;6124;59.460;17.908;2023-11-21T13:47:48;2.97;;;2.20;;
12120;SDS011;6124;59.460;17.908;2023-11-21T13:50:17;2.20;;;1.80;;
12120;SDS011;6124;59.460;17.908;2023-11-21T13:52:48;2.63;;;1.93;;
12120;SDS011;6124;59.460;17.908;2023-11-21T13:55:16;2.90;;;1.80;;
12120;SDS011;6124;59.460;17.908;2023-11-21T13:57:44;3.50;;;1.90;;
12120;SDS011;6124;59.460;17.908;2023-11-21T14:00:16;2.63;;;1.90;;
12120;SDS011;6124;59.460;17.908;2023-11-21T14:02:57;2.17;;;1.77;;
12120;SDS011;6124;59.460;17.908;2023-11-21T14:05:26;1.93;;;1.80;;
12120;SDS011;6124;59.460;17.908;2023-11-21T14:07:56;3.30;;;1.80;;
12120;SDS011;6124;59.460;17.908;2023-11-21T14:10:29;4.47;;;1.90;;
12120;SDS011;6124;59.460;17.908;2023-11-21T14:13:05;3.27;;;1.70;;
12120;SDS011;6124;59.460;17.908;2023-11-21T14:15:34;2.47;;;1.77;;
12120;SDS011;6124;59.460;17.908;2023-11-21T14:18:06;3.43;;;1.90;;
12120;SDS011;6124;59.460;17.908;2023-11-21T14:20:35;3.47;;;1.77;;
12120;SDS011;6124;59.460;17.908;2023-11-21T14:23:03;2.07;;;1.57;;
12120;SDS011;6124;59.460;17.908;2023-11-21T14:25:32;2.43;;;1.80;;
12120;SDS011;6124;59.460;17.908;2023-11-21T14:27:59;2.17;;;1.50;;
12120;SDS011;6124;59.460;17.908;2023-11-21T14:30:26;2.97;;;1.80;;
12120;SDS011;6124;59.460;17.908;2023-11-21T14:32:58;2.73;;;1.70;;
12120;SDS011;6124;59.460;17.908;2023-11-21T14:35:26;2.50;;;1.63;;
12120;SDS011;6124;59.460;17.908;2023-11-21T14:37:55;2.23;;;1.60;;
12120;SDS011;6124;59.460;17.908;2023-11-21T14:40:23;2.57;;;2.17;;
12120;SDS011;6124;59.460;17.908;2023-11-21T14:42:52;3.40;;;1.97;;
12120;SDS011;6124;59.460;17.908;2023-11-21T14:45:22;2.77;;;2.13;;
12120;SDS011;6124;59.460;17.908;2023-11-21T14:47:51;2.40;;;1.90;;
12120;SDS011;6124;59.460;17.908;2023-11-21T14:50:29;2.90;;;2.00;;
12120;SDS011;6124;59.460;17.908;2023-11-21T14:53:09;2.40;;;1.80;;
12120;SDS011;6124;59.460;17.908;2023-11-21T14:55:38;2.77;;;1.90;;
12120;SDS011;6124;59.460;17.908;2023-11-21T14:58:18;3.13;;;2.10;;